Time;durP1;ratioP1;P1;durP2;ratioP2;P2;SDS_P1;SDS_P2;PMS_P1;PMS_P2;Temp;Humidity;BMP_temperature;BMP_pressure;BME280_temperature;BME280_humidity;BME280_pressure;Samples;Min_cycle;Max_cycle;Signal;HPM_P1;HPM_P2
2022/02/19 00:01:49;;;;;;;13.73;2.20;;;2.30;99.90;;;;;;6278734;22;20030;-92
2022/02/19 00:04:15;;;;;;;15.40;2.58;;;2.30;99.90;;;;;;6250677;22;20003;-94
2022/02/19 00:06:40;;;;;;;14.15;1.67;;;2.30;99.90;;;;;;6249390;22;20093;-93
2022/02/19 00:09:07;;;;;;;12.32;2.00;;;2.30;99.90;;;;;;6250395;22;20011;-91
2022/02/19 00:11:32;;;;;;;20.02;2.72;;;2.30;99.90;;;;;;6225304;22;20004;-90
2022/02/19 00:13:58;;;;;;;12.20;2.75;;;2.30;99.90;;;;;;6250370;22;20098;-91
2022/02/19 00:16:24;;;;;;;9.40;2.60;;;2.40;99.90;;;;;;6250295;22;20003;-91
2022/02/19 00:18:50;;;;;;;16.27;2.05;;;2.30;99.90;;;;;;6250172;22;20030;-92
2022/02/19 00:21:16;;;;;;;16.25;2.53;;;2.40;99.90;;;;;;6250268;22;20038;-91
2022/02/19 00:23:42;;;;;;;19.63;3.35;;;2.30;99.90;;;;;;6249687;22;20007;-91
2022/02/19 00:26:09;;;;;;;16.25;2.78;;;2.30;99.90;;;;;;6250330;22;20075;-93
2022/02/19 00:28:36;;;;;;;13.60;2.33;;;2.30;99.90;;;;;;6250172;22;20431;-93
2022/02/19 00:31:01;;;;;;;13.98;2.42;;;2.30;99.90;;;;;;6249526;22;20067;-90
2022/02/19 00:33:27;;;;;;;16.90;2.08;;;2.30;99.90;;;;;;6249782;22;20449;-93
2022/02/19 00:35:54;;;;;;;13.25;1.88;;;2.30;99.90;;;;;;6250148;22;20094;-92
2022/02/19 00:38:20;;;;;;;14.82;2.25;;;2.30;99.90;;;;;;6249740;22;20453;-93
2022/02/19 00:40:48;;;;;;;12.90;1.73;;;2.30;99.90;;;;;;6249459;22;20014;-93
2022/02/19 00:43:14;;;;;;;21.08;1.80;;;2.30;99.90;;;;;;6249844;22;20003;-92
2022/02/19 00:45:41;;;;;;;15.38;2.17;;;2.30;99.90;;;;;;6249805;22;20004;-93
2022/02/19 00:48:07;;;;;;;14.02;2.63;;;2.30;99.90;;;;;;6249871;22;20542;-92
2022/02/19 00:50:34;;;;;;;12.15;3.38;;;2.30;99.90;;;;;;6249083;22;20016;-92
2022/02/19 00:53:00;;;;;;;11.10;2.67;;;2.20;99.90;;;;;;6249562;22;20026;-92
2022/02/19 00:55:27;;;;;;;11.13;2.60;;;2.20;99.90;;;;;;6249394;22;20043;-92
2022/02/19 00:57:53;;;;;;;10.23;1.70;;;2.10;99.90;;;;;;6248978;22;20524;-94
2022/02/19 01:00:19;;;;;;;8.07;1.60;;;2.10;99.90;;;;;;6249533;22;20431;-93
2022/02/19 01:02:45;;;;;;;4.35;1.50;;;2.10;99.90;;;;;;6249342;22;20086;-94
2022/02/19 01:05:11;;;;;;;7.43;1.30;;;2.00;99.90;;;;;;6250772;22;20007;-93
2022/02/19 01:07:37;;;;;;;7.00;1.00;;;1.90;99.90;;;;;;6277513;22;20421;-92
2022/02/19 01:10:04;;;;;;;7.60;1.52;;;1.80;99.90;;;;;;6250861;22;20016;-93
2022/02/19 01:12:29;;;;;;;2.70;1.00;;;1.80;99.90;;;;;;6250932;22;20003;-92
2022/02/19 01:14:55;;;;;;;10.73;1.85;;;1.70;99.90;;;;;;6249878;22;20008;-95
2022/02/19 01:17:24;;;;;;;6.80;1.70;;;1.80;99.90;;;;;;6253561;22;20415;-95
2022/02/19 01:19:49;;;;;;;5.30;1.10;;;1.80;99.90;;;;;;6259519;22;20011;-94
2022/02/19 01:22:15;;;;;;;6.15;1.20;;;1.80;99.90;;;;;;6281618;22;20015;-95
2022/02/19 01:24:41;;;;;;;8.80;1.35;;;1.90;99.90;;;;;;6253981;22;20022;-95
2022/02/19 01:27:07;;;;;;;6.32;1.10;;;1.80;99.90;;;;;;6288839;22;20007;-95
2022/02/19 01:29:34;;;;;;;5.20;1.48;;;1.80;99.90;;;;;;6269820;22;20015;-95
2022/02/19 01:32:00;;;;;;;2.75;0.80;;;1.80;99.90;;;;;;6248780;22;20004;-94
2022/02/19 01:34:28;;;;;;;8.27;1.20;;;1.80;99.90;;;;;;6273403;22;20007;-94
2022/02/19 01:43:03;;;;;;;6.85;1.50;;;1.80;99.90;;;;;;6322908;22;20022;-94
2022/02/19 01:45:29;;;;;;;11.80;2.00;;;1.80;99.90;;;;;;6295272;22;20018;-94
2022/02/19 01:47:55;;;;;;;19.60;2.28;;;1.80;99.90;;;;;;6290038;22;19999;-95
2022/02/19 01:50:21;;;;;;;3.05;0.80;;;1.80;99.90;;;;;;6313322;22;20011;-94
2022/02/19 01:52:46;;;;;;;26.08;3.55;;;1.80;99.90;;;;;;6315111;22;19999;-93
2022/02/19 01:55:15;;;;;;;8.43;1.23;;;1.80;99.90;;;;;;6286273;22;20008;-95
2022/02/19 01:57:42;;;;;;;13.18;2.50;;;1.90;99.90;;;;;;6287683;22;19999;-92
2022/02/19 02:00:09;;;;;;;11.57;1.30;;;1.90;99.90;;;;;;6287029;22;20003;-92
2022/02/19 02:02:38;;;;;;;14.70;2.00;;;1.90;99.90;;;;;;6294924;22;20149;-93
2022/02/19 02:05:04;;;;;;;16.88;3.83;;;2.00;99.90;;;;;;6293729;22;20014;-94
2022/02/19 02:07:30;;;;;;;17.20;3.63;;;2.00;99.90;;;;;;6292936;22;20109;-93
2022/02/19 02:09:58;;;;;;;8.95;1.88;;;2.00;99.90;;;;;;6294802;22;20018;-95
2022/02/19 02:12:24;;;;;;;10.45;1.65;;;2.00;99.90;;;;;;6292341;22;20066;-93
2022/02/19 02:14:49;;;;;;;10.15;1.83;;;2.00;99.90;;;;;;6284593;22;20011;-93
2022/02/19 02:17:15;;;;;;;10.38;1.67;;;2.00;99.90;;;;;;6283606;22;20027;-94
2022/02/19 02:19:41;;;;;;;9.13;2.10;;;2.00;99.90;;;;;;6283522;22;20077;-93
2022/02/19 02:22:08;;;;;;;14.88;2.25;;;2.00;99.90;;;;;;6284188;22;20010;-93
2022/02/19 02:24:37;;;;;;;15.35;2.75;;;2.00;99.90;;;;;;6285665;22;20006;-93
2022/02/19 02:27:05;;;;;;;21.88;2.88;;;2.00;99.90;;;;;;6283432;22;20035;-94
2022/02/19 02:29:31;;;;;;;23.80;4.20;;;2.00;99.90;;;;;;6283749;22;20019;-95
2022/02/19 02:31:58;;;;;;;21.55;3.05;;;2.00;99.90;;;;;;6284006;22;20006;-95
2022/02/19 02:34:23;;;;;;;17.75;4.22;;;2.00;99.90;;;;;;6283703;22;20419;-94
2022/02/19 02:36:49;;;;;;;13.73;2.55;;;2.00;99.90;;;;;;6283172;22;20003;-94
2022/02/19 02:39:14;;;;;;;18.05;2.42;;;2.00;99.90;;;;;;6283684;22;20384;-93
2022/02/19 02:41:40;;;;;;;18.52;2.28;;;2.00;99.90;;;;;;6291060;22;20021;-96
2022/02/19 02:44:06;;;;;;;10.30;1.88;;;2.00;99.90;;;;;;6310150;22;20007;-93
2022/02/19 02:46:32;;;;;;;14.35;2.65;;;2.00;99.90;;;;;;6309900;22;20455;-95
2022/02/19 02:48:57;;;;;;;8.35;1.52;;;2.10;99.90;;;;;;6309950;22;19999;-93
2022/02/19 02:51:23;;;;;;;17.27;1.55;;;2.10;99.90;;;;;;6320642;22;20006;-93
2022/02/19 02:53:49;;;;;;;18.02;1.95;;;2.10;99.90;;;;;;6324263;22;20006;-95
2022/02/19 02:56:15;;;;;;;11.90;2.03;;;2.10;99.90;;;;;;6313050;22;19999;-95
2022/02/19 02:58:41;;;;;;;15.40;1.75;;;2.00;99.90;;;;;;6320567;22;20003;-95
2022/02/19 03:01:31;;;;;;;11.07;2.03;;;2.00;99.90;;;;;;6307624;22;20007;-95
2022/02/19 03:03:58;;;;;;;7.90;1.40;;;1.90;99.90;;;;;;6300730;22;20062;-95
2022/02/19 03:06:25;;;;;;;11.13;1.58;;;1.80;99.90;;;;;;6330255;22;20009;-94
2022/02/19 03:08:56;;;;;;;16.38;1.73;;;1.80;99.90;;;;;;6330187;22;20033;-95
2022/02/19 03:11:22;;;;;;;19.38;2.05;;;1.70;99.90;;;;;;6331915;22;19984;-95
2022/02/19 03:17:21;;;;;;;14.57;1.75;;;1.70;99.90;;;;;;6335434;22;20038;-96
2022/02/19 03:19:56;;;;;;;13.90;2.65;;;1.70;99.90;;;;;;6334949;22;20007;-95
2022/02/19 03:22:33;;;;;;;14.20;2.13;;;1.80;99.90;;;;;;6333433;22;20003;-95
2022/02/19 03:25:20;;;;;;;14.35;2.30;;;1.80;99.90;;;;;;6335513;22;20029;-94
2022/02/19 03:27:55;;;;;;;9.13;1.65;;;1.80;99.90;;;;;;6332026;22;19991;-96
2022/02/19 03:30:26;;;;;;;12.65;1.58;;;1.80;99.90;;;;;;6304201;22;20030;-96
2022/02/19 03:33:15;;;;;;;;;;;1.90;99.90;;;;;;6334023;22;20011;-96
2022/02/19 03:35:46;;;;;;;12.52;1.55;;;1.90;99.90;;;;;;6333028;22;19910;-95
2022/02/19 03:38:17;;;;;;;19.67;1.88;;;1.90;99.90;;;;;;6308374;22;19999;-96
2022/02/19 03:40:52;;;;;;;;;;;2.00;99.90;;;;;;6332223;22;19987;-95
2022/02/19 03:43:23;;;;;;;14.43;1.08;;;2.00;99.90;;;;;;6324944;22;19933;-95
2022/02/19 03:45:49;;;;;;;9.32;1.58;;;2.00;99.90;;;;;;6327159;22;20003;-95
2022/02/19 03:48:22;;;;;;;15.57;1.63;;;2.00;99.90;;;;;;6327390;22;20002;-94
2022/02/19 03:50:51;;;;;;;8.93;1.40;;;2.00;99.90;;;;;;6331943;22;20015;-96
2022/02/19 03:53:23;;;;;;;14.98;2.35;;;2.00;99.90;;;;;;6328543;22;20003;-95
2022/02/19 03:55:53;;;;;;;12.98;1.67;;;2.00;99.90;;;;;;6278988;22;20004;-96
2022/02/19 03:58:21;;;;;;;9.00;1.92;;;2.00;99.90;;;;;;6324169;22;20007;-96
2022/02/19 04:00:51;;;;;;;10.27;1.80;;;2.00;99.90;;;;;;6295795;22;20004;-95
2022/02/19 04:03:21;;;;;;;10.93;1.70;;;2.00;99.90;;;;;;6325317;22;20456;-96
2022/02/19 04:05:47;;;;;;;14.43;1.45;;;2.10;99.90;;;;;;6322843;22;20086;-96
2022/02/19 04:08:13;;;;;;;9.02;1.52;;;2.10;99.90;;;;;;6321860;22;20010;-95
2022/02/19 04:10:39;;;;;;;12.77;2.72;;;2.10;99.90;;;;;;6316433;22;20018;-94
2022/02/19 04:13:06;;;;;;;7.38;1.70;;;2.10;99.90;;;;;;6313963;22;20377;-94
2022/02/19 04:15:33;;;;;;;9.32;1.80;;;2.10;99.90;;;;;;6316636;22;20005;-95
2022/02/19 04:17:59;;;;;;;6.68;1.58;;;2.10;99.90;;;;;;6313911;22;20006;-95
2022/02/19 04:20:25;;;;;;;5.70;1.10;;;2.00;99.90;;;;;;6314717;22;20007;-94
2022/02/19 04:22:52;;;;;;;10.85;1.67;;;2.10;99.90;;;;;;6314624;22;20026;-96
2022/02/19 04:25:18;;;;;;;16.48;1.95;;;2.00;99.90;;;;;;6318609;22;20003;-96
2022/02/19 04:27:44;;;;;;;8.68;1.55;;;2.10;99.90;;;;;;6322080;22;19999;-95
2022/02/19 04:30:12;;;;;;;10.43;1.88;;;2.10;99.90;;;;;;6295976;22;20034;-95
2022/02/19 04:32:39;;;;;;;14.40;1.70;;;2.10;99.90;;;;;;6323012;22;20006;-96
2022/02/19 04:35:06;;;;;;;11.40;2.05;;;2.10;99.90;;;;;;6295895;22;20015;-94
2022/02/19 04:37:31;;;;;;;13.20;1.73;;;2.10;99.90;;;;;;6319708;22;20076;-95
2022/02/19 04:40:00;;;;;;;9.82;1.90;;;2.10;99.90;;;;;;6319108;22;19999;-96
2022/02/19 04:42:26;;;;;;;8.45;1.70;;;2.10;99.90;;;;;;6317980;22;20015;-95
2022/02/19 04:44:51;;;;;;;5.55;1.42;;;2.10;99.90;;;;;;6316433;22;20003;-95
2022/02/19 04:47:17;;;;;;;12.88;1.60;;;2.10;99.90;;;;;;6313953;22;20010;-95
2022/02/19 04:49:43;;;;;;;9.30;1.50;;;2.10;99.90;;;;;;6312768;22;20019;-94
2022/02/19 04:52:09;;;;;;;7.15;1.52;;;2.10;99.90;;;;;;6312085;22;19999;-95
2022/02/19 04:54:35;;;;;;;10.75;1.38;;;2.10;99.90;;;;;;6310052;22;20004;-95
2022/02/19 04:57:01;;;;;;;12.27;1.60;;;2.10;99.90;;;;;;6310115;22;20014;-95
2022/02/19 04:59:28;;;;;;;10.82;2.88;;;2.10;99.90;;;;;;6314465;22;19995;-96
2022/02/19 05:01:54;;;;;;;11.73;1.67;;;2.10;99.90;;;;;;6310917;22;20007;-95
2022/02/19 05:04:19;;;;;;;7.35;1.50;;;2.10;99.90;;;;;;6309561;22;20010;-94
2022/02/19 05:06:45;;;;;;;10.45;1.48;;;2.10;99.90;;;;;;6308628;22;20003;-93
2022/02/19 05:09:11;;;;;;;11.05;1.88;;;2.10;99.90;;;;;;6309850;22;20039;-93
2022/02/19 05:11:37;;;;;;;9.48;1.73;;;2.10;99.90;;;;;;6308398;22;20077;-93
2022/02/19 05:14:02;;;;;;;11.38;1.50;;;2.10;99.90;;;;;;6307570;22;20054;-92
2022/02/19 05:16:28;;;;;;;6.65;1.88;;;2.10;99.90;;;;;;6307106;22;20431;-92
2022/02/19 05:18:54;;;;;;;12.25;1.50;;;2.10;99.90;;;;;;6307367;22;20338;-91
2022/02/19 05:21:19;;;;;;;14.73;2.10;;;2.10;99.90;;;;;;6307805;22;20343;-92
2022/02/19 05:23:45;;;;;;;10.77;2.05;;;2.10;99.90;;;;;;6307636;22;20007;-92
2022/02/19 05:26:11;;;;;;;21.17;1.67;;;2.10;99.90;;;;;;6314892;22;20003;-93
2022/02/19 05:28:36;;;;;;;3.20;0.68;;;2.10;99.90;;;;;;6320803;22;20026;-93
2022/02/19 05:31:03;;;;;;;12.27;1.48;;;2.10;99.90;;;;;;6321973;22;20011;-93
2022/02/19 05:33:30;;;;;;;5.47;1.10;;;2.10;99.90;;;;;;6321649;22;20136;-90
2022/02/19 05:35:56;;;;;;;4.60;1.25;;;2.10;99.90;;;;;;6320692;22;20011;-91
2022/02/19 05:38:21;;;;;;;6.00;1.23;;;2.10;99.90;;;;;;6320449;22;19984;-91
2022/02/19 05:40:47;;;;;;;9.88;1.60;;;2.10;99.90;;;;;;6320624;22;20006;-92
2022/02/19 05:43:13;;;;;;;7.68;1.27;;;2.10;99.90;;;;;;6320110;22;20091;-92
2022/02/19 05:45:41;;;;;;;9.52;1.05;;;2.10;99.90;;;;;;6320825;22;20039;-91
2022/02/19 05:48:07;;;;;;;11.18;1.60;;;2.10;99.90;;;;;;6320732;22;20008;-91
2022/02/19 05:50:32;;;;;;;16.50;1.95;;;2.10;99.90;;;;;;6319234;22;20564;-91
2022/02/19 05:52:58;;;;;;;8.25;1.20;;;2.20;99.90;;;;;;6311813;22;19995;-93
2022/02/19 05:55:24;;;;;;;6.32;1.00;;;2.20;99.90;;;;;;6310144;22;20003;-92
2022/02/19 05:57:50;;;;;;;10.00;1.48;;;2.20;99.90;;;;;;6316610;22;20074;-94
2022/02/19 06:00:16;;;;;;;12.75;2.10;;;2.10;99.90;;;;;;6321219;22;20003;-91
2022/02/19 06:02:42;;;;;;;7.80;1.20;;;2.10;99.90;;;;;;6313241;22;20083;-92
2022/02/19 06:05:08;;;;;;;7.35;1.20;;;2.10;99.90;;;;;;6312786;22;20007;-92
2022/02/19 06:07:35;;;;;;;11.20;1.67;;;2.10;99.90;;;;;;6309076;22;20003;-93
2022/02/19 06:10:01;;;;;;;13.35;1.90;;;2.10;99.90;;;;;;6311386;22;20058;-93
2022/02/19 06:12:27;;;;;;;15.00;1.77;;;2.00;99.90;;;;;;6310830;22;20026;-94
2022/02/19 06:14:52;;;;;;;10.40;1.50;;;2.00;99.90;;;;;;6286443;22;20007;-93
2022/02/19 06:17:18;;;;;;;17.02;1.73;;;2.00;99.90;;;;;;6311397;22;20029;-94
2022/02/19 06:19:44;;;;;;;11.10;1.85;;;2.00;99.90;;;;;;6311502;22;20007;-94
2022/02/19 06:22:09;;;;;;;6.63;1.45;;;2.00;99.90;;;;;;6312357;22;20014;-94
2022/02/19 06:24:35;;;;;;;18.83;1.60;;;2.00;99.90;;;;;;6311434;22;20084;-95
2022/02/19 06:27:01;;;;;;;12.50;1.85;;;2.00;99.90;;;;;;6312123;22;20068;-93
2022/02/19 06:29:27;;;;;;;4.85;1.50;;;2.10;99.90;;;;;;6310459;22;20011;-93
2022/02/19 06:31:53;;;;;;;21.05;1.83;;;2.00;99.90;;;;;;6311458;22;20042;-94
2022/02/19 06:34:18;;;;;;;7.22;1.85;;;2.00;99.90;;;;;;6311113;22;20289;-94
2022/02/19 06:36:44;;;;;;;10.82;1.75;;;2.10;99.90;;;;;;6309316;22;20632;-94
2022/02/19 06:39:11;;;;;;;15.93;3.15;;;2.00;99.90;;;;;;6293987;22;20023;-95
2022/02/19 06:41:37;;;;;;;13.73;1.67;;;2.00;99.90;;;;;;6312932;22;20402;-94
2022/02/19 06:44:03;;;;;;;13.13;1.58;;;2.00;99.90;;;;;;6287378;22;20358;-93
2022/02/19 06:46:28;;;;;;;19.00;2.40;;;2.00;99.90;;;;;;6286280;22;20039;-92
2022/02/19 06:48:55;;;;;;;9.23;1.30;;;1.90;99.90;;;;;;6286759;22;20524;-94
2022/02/19 06:51:20;;;;;;;16.45;1.90;;;1.90;99.90;;;;;;6285171;22;20015;-93
2022/02/19 06:53:46;;;;;;;16.40;2.30;;;2.00;99.90;;;;;;6285394;22;20006;-94
2022/02/19 06:56:12;;;;;;;8.95;1.58;;;1.90;99.90;;;;;;6293267;22;20014;-93
2022/02/19 06:58:37;;;;;;;7.18;1.38;;;1.90;99.90;;;;;;6285339;22;20023;-93
2022/02/19 07:01:03;;;;;;;11.80;1.48;;;1.90;99.90;;;;;;6284928;22;20038;-94
2022/02/19 07:03:29;;;;;;;17.13;2.10;;;1.90;99.90;;;;;;6285018;22;20039;-93
2022/02/19 07:05:55;;;;;;;18.58;1.67;;;2.00;99.90;;;;;;6312950;22;20003;-93
2022/02/19 07:08:22;;;;;;;10.98;2.53;;;1.90;99.90;;;;;;6283994;22;20007;-93
2022/02/19 07:10:48;;;;;;;8.23;1.85;;;2.00;99.90;;;;;;6283950;22;20023;-94
2022/02/19 07:13:14;;;;;;;9.80;1.90;;;2.00;99.90;;;;;;6285884;22;20076;-94
2022/02/19 07:15:40;;;;;;;11.38;2.08;;;2.00;99.90;;;;;;6284836;22;20415;-92
2022/02/19 07:18:06;;;;;;;20.58;2.05;;;2.00;99.90;;;;;;6283948;22;19995;-93
2022/02/19 07:20:37;;;;;;;10.95;1.55;;;2.00;99.90;;;;;;6283195;22;20010;-92
2022/02/19 07:23:03;;;;;;;6.03;1.40;;;2.00;99.90;;;;;;6282570;22;20027;-93
2022/02/19 07:25:29;;;;;;;9.75;1.35;;;2.00;99.90;;;;;;6282536;22;20398;-92
2022/02/19 07:27:54;;;;;;;13.45;1.88;;;2.00;99.90;;;;;;6282685;22;20003;-93
2022/02/19 07:30:21;;;;;;;11.23;1.55;;;2.00;99.90;;;;;;6282495;22;20029;-92
2022/02/19 07:32:53;;;;;;;8.63;1.85;;;2.00;99.90;;;;;;6282395;22;20003;-92
2022/02/19 07:35:20;;;;;;;10.27;2.08;;;2.00;99.90;;;;;;6282887;22;20003;-93
2022/02/19 07:37:46;;;;;;;13.48;1.67;;;2.00;99.90;;;;;;6282475;22;20011;-91
2022/02/19 07:40:11;;;;;;;8.07;1.23;;;2.10;99.90;;;;;;6279208;22;20039;-94
2022/02/19 07:42:37;;;;;;;15.43;1.83;;;2.20;99.90;;;;;;6294259;22;20015;-94
2022/02/19 07:45:04;;;;;;;6.15;1.50;;;2.20;99.90;;;;;;6308303;22;20011;-91
2022/02/19 07:47:32;;;;;;;6.63;1.25;;;2.30;99.90;;;;;;6307742;22;20064;-93
2022/02/19 07:58:29;;;;;;;12.05;1.55;;;2.50;99.90;;;;;;6245315;23;20510;-92
2022/02/19 08:00:59;;;;;;;13.82;1.90;;;2.50;99.90;;;;;;6220896;23;20016;-92
2022/02/19 08:03:27;;;;;;;6.05;1.20;;;2.50;99.90;;;;;;6245985;23;19996;-93
2022/02/19 08:05:54;;;;;;;6.38;1.05;;;2.60;99.90;;;;;;6246358;23;20035;-93
2022/02/19 08:08:20;;;;;;;6.82;1.40;;;2.60;99.90;;;;;;6245689;23;20087;-93
2022/02/19 08:10:46;;;;;;;15.52;1.50;;;2.60;99.90;;;;;;6246163;23;20012;-93
2022/02/19 08:13:13;;;;;;;9.75;1.23;;;2.70;99.90;;;;;;6246454;23;20035;-93
2022/02/19 08:15:39;;;;;;;9.10;1.70;;;2.70;99.90;;;;;;6244938;23;20016;-90
2022/02/19 08:18:07;;;;;;;4.82;0.90;;;2.70;99.90;;;;;;6245944;23;20008;-93
2022/02/19 08:20:35;;;;;;;14.13;2.15;;;2.70;99.90;;;;;;6244569;23;20015;-93
2022/02/19 08:23:02;;;;;;;7.05;1.20;;;2.70;99.90;;;;;;6245729;23;20000;-94
2022/02/19 08:25:28;;;;;;;6.88;1.60;;;2.80;99.90;;;;;;6250674;23;20004;-93
2022/02/19 08:27:54;;;;;;;9.77;1.35;;;2.80;99.90;;;;;;6324226;22;19999;-92
2022/02/19 08:30:21;;;;;;;13.15;1.80;;;2.80;99.90;;;;;;6308348;22;20076;-93
2022/02/19 08:32:48;;;;;;;12.20;1.50;;;2.80;99.90;;;;;;6307597;22;20003;-94
2022/02/19 08:35:14;;;;;;;8.23;1.08;;;2.90;99.90;;;;;;6308142;22;20102;-93
2022/02/19 08:37:40;;;;;;;6.00;1.02;;;2.90;99.90;;;;;;6307766;22;20007;-94
2022/02/19 08:40:09;;;;;;;14.75;1.27;;;2.90;99.90;;;;;;6309818;22;20004;-93
2022/02/19 08:42:35;;;;;;;9.50;1.55;;;2.90;99.90;;;;;;6315653;22;20007;-94
2022/02/19 08:45:01;;;;;;;10.60;1.77;;;2.90;99.90;;;;;;6318987;22;20003;-92
2022/02/19 08:47:27;;;;;;;17.77;1.67;;;3.00;99.90;;;;;;6319826;22;20003;-95
2022/02/19 08:49:55;;;;;;;7.07;1.10;;;3.00;99.90;;;;;;6320454;22;20026;-94
2022/02/19 08:52:20;;;;;;;9.48;1.10;;;3.00;99.90;;;;;;6321422;22;20085;-93
2022/02/19 08:54:46;;;;;;;9.82;1.85;;;3.00;99.90;;;;;;6324411;22;20007;-93
2022/02/19 08:57:12;;;;;;;10.52;1.40;;;3.00;99.90;;;;;;6324146;22;19999;-93
2022/02/19 08:59:37;;;;;;;10.13;1.10;;;3.00;99.90;;;;;;6326754;22;20022;-95
2022/02/19 09:02:03;;;;;;;11.82;1.50;;;3.10;99.90;;;;;;6314578;22;20033;-93
2022/02/19 09:04:29;;;;;;;9.10;2.20;;;3.00;99.90;;;;;;6309684;22;20427;-94
2022/02/19 09:06:55;;;;;;;7.38;1.33;;;3.00;99.90;;;;;;6316890;22;19999;-95
2022/02/19 09:09:21;;;;;;;14.20;2.60;;;3.00;99.90;;;;;;6310311;22;20013;-94
2022/02/19 09:11:47;;;;;;;5.68;1.23;;;3.00;99.90;;;;;;6308680;22;20500;-94
2022/02/19 09:14:13;;;;;;;11.05;1.77;;;3.00;99.90;;;;;;6309885;22;20010;-95
2022/02/19 09:16:39;;;;;;;12.30;1.63;;;3.00;99.90;;;;;;6308558;22;20098;-94
2022/02/19 09:19:06;;;;;;;13.27;2.00;;;3.00;99.90;;;;;;6308005;22;19999;-94
2022/02/19 09:21:32;;;;;;;5.95;1.67;;;3.00;99.90;;;;;;6308545;22;20445;-94
2022/02/19 09:23:59;;;;;;;12.90;2.05;;;3.00;99.90;;;;;;6308388;22;20003;-93
2022/02/19 09:26:24;;;;;;;11.35;2.17;;;3.00;99.90;;;;;;6309955;22;20004;-94
2022/02/19 09:28:51;;;;;;;5.65;1.73;;;3.00;99.90;;;;;;6308675;22;20003;-95
2022/02/19 09:31:16;;;;;;;12.70;1.63;;;2.90;99.90;;;;;;6309187;22;20022;-95
2022/02/19 09:33:42;;;;;;;9.48;1.73;;;2.90;99.90;;;;;;6309090;22;19999;-93
2022/02/19 09:36:09;;;;;;;16.60;1.60;;;2.90;99.90;;;;;;6311674;22;20007;-94
2022/02/19 09:38:35;;;;;;;17.05;2.28;;;2.80;99.90;;;;;;6312026;22;20033;-90
2022/02/19 09:41:04;;;;;;;12.25;1.85;;;2.80;99.90;;;;;;6310233;22;20007;-94
2022/02/19 09:43:30;;;;;;;9.15;1.60;;;2.80;99.90;;;;;;6309247;22;20026;-94
2022/02/19 09:45:57;;;;;;;6.43;2.15;;;2.80;99.90;;;;;;6316312;22;19999;-92
2022/02/19 09:48:22;;;;;;;11.73;1.50;;;2.80;99.90;;;;;;6314016;22;20003;-94
2022/02/19 09:50:49;;;;;;;15.93;2.33;;;2.80;99.90;;;;;;6308349;22;20011;-93
2022/02/19 09:53:15;;;;;;;9.32;1.70;;;2.80;99.90;;;;;;6308617;22;20086;-93
2022/02/19 09:55:43;;;;;;;8.60;1.40;;;2.80;99.90;;;;;;6309001;22;20049;-95
2022/02/19 09:58:09;;;;;;;15.77;1.65;;;2.80;99.90;;;;;;6307296;22;20022;-93
2022/02/19 10:00:34;;;;;;;11.43;1.77;;;2.80;99.90;;;;;;6308415;22;20007;-95
2022/02/19 10:03:00;;;;;;;11.98;2.65;;;2.80;99.90;;;;;;6310007;22;20049;-95
2022/02/19 10:05:31;;;;;;;6.45;1.50;;;2.80;99.90;;;;;;6316131;22;20030;-95
2022/02/19 10:08:08;;;;;;;6.97;1.25;;;2.70;99.90;;;;;;6308861;22;20035;-95
2022/02/19 10:10:37;;;;;;;6.03;0.98;;;2.70;99.90;;;;;;6308546;22;20019;-95
2022/02/19 10:13:03;;;;;;;14.57;1.60;;;2.70;99.90;;;;;;6310088;22;20004;-94
2022/02/19 10:15:45;;;;;;;7.57;1.23;;;2.70;99.90;;;;;;6312450;22;20031;-92
2022/02/19 10:18:32;;;;;;;11.32;2.72;;;2.70;99.90;;;;;;6320052;22;20003;-93
2022/02/19 10:21:17;;;;;;;16.98;1.83;;;2.70;99.90;;;;;;6312474;22;20003;-94
2022/02/19 10:23:48;;;;;;;5.35;1.30;;;2.70;99.90;;;;;;6311798;22;20034;-95
2022/02/19 10:26:16;;;;;;;7.20;1.45;;;2.70;99.90;;;;;;6312750;22;19999;-94
2022/02/19 10:29:14;;;;;;;12.82;1.73;;;2.70;99.90;;;;;;6311672;22;20027;-94
2022/02/19 10:31:39;;;;;;;11.82;1.30;;;2.70;99.90;;;;;;6315377;22;20087;-93
2022/02/19 10:34:09;;;;;;;8.43;2.10;;;2.80;99.90;;;;;;6317201;22;20003;-94
2022/02/19 10:36:51;;;;;;;13.05;1.35;;;2.70;99.90;;;;;;6317582;22;20003;-95
2022/02/19 10:39:31;;;;;;;10.55;2.22;;;2.70;99.90;;;;;;6310998;22;20029;-93
2022/02/19 10:42:06;;;;;;;5.05;1.45;;;2.70;99.90;;;;;;6309808;22;20007;-93
2022/02/19 10:44:35;;;;;;;7.70;1.58;;;2.70;99.90;;;;;;6311335;22;20003;-94
2022/02/19 10:47:21;;;;;;;12.20;1.42;;;2.60;99.90;;;;;;6309601;22;20003;-93
2022/02/19 10:50:12;;;;;;;5.97;1.55;;;2.60;99.90;;;;;;6308492;22;20541;-93
2022/02/19 10:52:42;;;;;;;6.72;1.33;;;2.50;99.90;;;;;;6308926;22;20018;-93
2022/02/19 10:55:14;;;;;;;11.02;1.40;;;2.50;99.90;;;;;;6309058;22;20003;-95
2022/02/19 10:57:42;;;;;;;5.75;1.33;;;2.40;99.90;;;;;;6308803;22;20011;-94
2022/02/19 11:00:16;;;;;;;3.28;1.23;;;2.40;99.90;;;;;;6308738;22;20003;-93
2022/02/19 11:02:46;;;;;;;8.35;1.15;;;2.30;99.90;;;;;;6308430;22;20003;-93
2022/02/19 11:05:13;;;;;;;2.85;0.85;;;2.30;99.90;;;;;;6308484;22;20437;-92
2022/02/19 11:07:41;;;;;;;4.95;1.50;;;2.30;99.90;;;;;;6308270;22;20003;-93
2022/02/19 11:10:12;;;;;;;1.75;1.10;;;2.30;99.90;;;;;;6308312;22;20019;-90
2022/02/19 11:12:38;;;;;;;8.45;1.60;;;2.30;99.90;;;;;;6308502;22;20035;-93
2022/02/19 11:15:06;;;;;;;2.83;1.00;;;2.20;99.90;;;;;;6309119;22;20025;-92
2022/02/19 11:17:34;;;;;;;4.13;1.10;;;2.20;99.90;;;;;;6308858;22;20090;-96
2022/02/19 11:20:04;;;;;;;6.55;1.35;;;2.20;99.90;;;;;;6309258;22;20007;-93
2022/02/19 11:22:42;;;;;;;3.88;0.77;;;2.20;99.90;;;;;;6309088;22;20007;-93
2022/02/19 11:25:16;;;;;;;7.65;1.00;;;2.10;99.90;;;;;;6285627;22;20078;-92
2022/02/19 11:28:14;;;;;;;2.95;0.98;;;2.00;99.90;;;;;;6308956;22;20068;-91
2022/02/19 11:30:48;;;;;;;6.10;1.08;;;2.10;99.90;;;;;;6307603;22;20528;-92
2022/02/19 11:33:15;;;;;;;4.63;1.10;;;2.00;99.90;;;;;;6308141;22;20003;-93
2022/02/19 11:35:42;;;;;;;7.22;0.98;;;2.00;99.90;;;;;;6309487;22;20003;-93
2022/02/19 11:38:50;;;;;;;3.88;0.88;;;1.90;99.90;;;;;;6308765;22;20035;-93
2022/02/19 11:42:10;;;;;;;4.53;1.02;;;1.90;99.90;;;;;;6279461;22;20004;-95
2022/02/19 11:44:48;;;;;;;3.10;1.40;;;1.90;99.90;;;;;;6216797;23;20012;-94
2022/02/19 11:48:09;;;;;;;3.95;1.40;;;1.90;99.90;;;;;;6190786;23;20009;-94
2022/02/19 12:05:39;;;;;;;5.47;1.77;;;1.80;99.90;;;;;;6217433;23;20019;-95
2022/02/19 12:08:27;;;;;;;2.50;1.40;;;1.90;99.90;;;;;;6191083;23;20024;-96
2022/02/19 12:15:00;;;;;;;4.38;1.02;;;1.90;99.90;;;;;;6100466;23;20007;-94
2022/02/19 12:22:29;;;;;;;3.45;1.40;;;2.00;99.90;;;;;;6134250;23;20305;-96
2022/02/19 12:25:18;;;;;;;2.58;0.55;;;2.10;99.90;;;;;;6127379;23;20009;-94
2022/02/19 12:28:30;;;;;;;2.08;0.60;;;2.20;99.90;;;;;;6130792;23;20108;-92
2022/02/19 12:31:20;;;;;;;5.88;0.82;;;2.20;99.90;;;;;;6137210;23;20016;-94
2022/02/19 12:33:48;;;;;;;2.45;0.80;;;2.20;99.90;;;;;;6130297;23;20032;-91
2022/02/19 12:36:14;;;;;;;3.35;1.98;;;2.20;99.90;;;;;;6133909;23;20001;-92
2022/02/19 12:38:48;;;;;;;1.42;0.80;;;2.20;99.90;;;;;;6131285;23;20009;-92
2022/02/19 12:41:24;;;;;;;1.35;0.60;;;2.20;99.90;;;;;;6131740;23;20016;-96
2022/02/19 12:44:06;;;;;;;0.88;0.57;;;2.20;99.90;;;;;;6163568;23;20017;-92
2022/02/19 12:46:34;;;;;;;1.75;0.55;;;2.30;99.90;;;;;;6190321;23;20068;-93
2022/02/19 12:49:01;;;;;;;0.20;0.20;;;2.30;99.90;;;;;;6190445;23;20091;-92
2022/02/19 12:51:26;;;;;;;1.70;1.00;;;2.40;99.90;;;;;;6215928;22;20015;-94
2022/02/19 12:53:52;;;;;;;0.30;0.30;;;2.40;99.90;;;;;;6283103;22;20089;-92
2022/02/19 12:56:18;;;;;;;2.70;0.68;;;2.40;99.90;;;;;;6283575;22;20335;-93
2022/02/19 12:58:48;;;;;;;0.32;0.30;;;2.50;99.90;;;;;;6282771;22;20415;-93
2022/02/19 13:01:17;;;;;;;0.80;0.28;;;2.50;99.90;;;;;;6282549;22;20007;-92
2022/02/19 13:03:46;;;;;;;1.70;0.98;;;2.50;99.90;;;;;;6282805;22;20404;-93
2022/02/19 13:06:18;;;;;;;0.57;0.55;;;2.50;99.90;;;;;;6284540;22;20008;-94
2022/02/19 13:08:51;;;;;;;1.10;0.60;;;2.40;99.90;;;;;;6283750;22;20085;-96
2022/02/19 13:11:33;;;;;;;3.15;1.55;;;2.40;99.90;;;;;;6283305;22;20058;-95
2022/02/19 13:14:08;;;;;;;2.50;0.95;;;2.50;99.90;;;;;;6281987;22;20022;-94
2022/02/19 13:20:03;;;;;;;2.58;1.05;;;2.50;99.90;;;;;;6310849;22;20008;-95
2022/02/19 13:23:15;;;;;;;;;;;;;;;;;;;;;
2022/02/19 13:30:20;;;;;;;6.45;1.92;;;2.60;99.90;;;;;;6148657;23;20072;-95
2022/02/19 13:33:39;;;;;;;5.78;1.80;;;2.70;99.90;;;;;;6096001;23;20014;-93
2022/02/19 13:39:24;;;;;;;1.70;0.73;;;2.90;99.90;;;;;;6096706;23;20110;-94
2022/02/19 13:41:56;;;;;;;5.22;1.40;;;2.90;99.90;;;;;;6072246;23;20010;-93
2022/02/19 13:44:44;;;;;;;3.85;0.98;;;2.90;99.90;;;;;;6074670;23;20014;-94
2022/02/19 13:47:13;;;;;;;2.50;0.88;;;2.90;99.90;;;;;;6074533;23;20033;-93
2022/02/19 13:49:47;;;;;;;2.17;1.13;;;3.00;99.90;;;;;;6074806;23;20014;-93
2022/02/19 13:52:29;;;;;;;1.48;0.70;;;3.10;99.90;;;;;;6075028;23;20018;-93
2022/02/19 13:55:12;;;;;;;1.33;0.77;;;3.20;99.90;;;;;;6074997;23;20010;-92
2022/02/19 13:57:50;;;;;;;0.82;0.60;;;3.20;99.90;;;;;;6098432;23;20006;-94